Storrs Mansfield, CT (06268)

7:41 AM EST on March 06, 2015 (GMT -0500)
Gurleyville Green | Change Station
CLOSE
Current Station
Personal Weather Station
Location: Storrs Mansfield, CT
Elevation: 354 ft
Nearby Weather Stations

Elev 354 ft 41.82 °N, 72.22 °W | Updated 9 seconds ago

Clear
Clear
2.9 °F
Feels Like 3 °F
N
0.0
Wind Variable Wind from NNE
Gusts 1.0 mph

Today
High -- | Low -- °F
--% Chance of Precip.
Yesterday
High -- | Low -- °F
Precip. -- in
6:16 AM 5:44 PM
Waxing Gibbous, 99% visible
Pressure 30.51 in
Visibility 9.0 miles
Clouds Clear
Windchill 3 °F
Dew Point -2 °F
Humidity 80%
Rainfall in
Snow Depth Not available.
UV 0 out of 12
Pollen .50 out of 12
Air Quality Not available.
Flu Activity Not available.
METAR KIJD 061152Z AUTO 00000KT 9SM CLR M18/M21 A3049 RMK AO2 SLP329 70003 T11781206 11078 21189 51027

More Conditions Fewer Conditions

Pressure 30.51 in
Visibility 9.0 miles
Clouds Clear
Windchill 3 °F
Dew Point -2 °F
Humidity 80%
Rainfall in
Snow Depth Not available.
UV 0 out of 12
Pollen .50 out of 12
Air Quality Not available.
Flu Activity Not available.
METAR KIJD 061152Z AUTO 00000KT 9SM CLR M18/M21 A3049 RMK AO2 SLP329 70003 T11781206 11078 21189 51027

More Conditions Fewer Conditions

10-Day Weather Forecast

Almanac

Astronomy

Mar. 06, 2015 Rise Set
Actual Time
Civil Twilight
Nautical Twilight
Astronomical Twilight
Moon
Length of Visible Light
Length of Day
Tomorrow will be .
, % of the Moon is Illuminated

Today's Extremes

State Highs State Lows

Community

WunderPhotos

Upload Photos

1,803,246 photos uploaded!

WunderBlogs® & News

Nearby

Air Quality

  Air Quality AQ Index Pollutant
Not available.

Snow Depth

Station Depth Elevation

Earthquake Activity

City Distance Mag. Time & Date
Minimum magnitude displayed is 2.5.

Coastal Water Temperatures

Place Temperature

Nearby Weather Stations